LFJL/ETZ METAR and TAF weather

Enter ICAO airport designator
Station Type Date Time Source
LFJL METAR 2021/08/01 17:00 UTC NOAA

LFJL 011700Z AUTO 27011KT 9999 ///CB 21/10 Q1012 TEMPO 4000 -SHRA


Station Type Date Time Source
LFJL Decoded METAR 2021/08/01 17:00 UTC NOAA

Metz-Nancy-Lorraine, France (LFJL) 48-59N 006-15E
Aug 01, 2021 - 01:00 PM EDT / 2021.08.01 1700 UTC
Wind: from the W (270 degrees) at 13 MPH (11 KT):0
Visibility: greater than 7 mile(s):0
Weather: Cumulonimbus clouds observed
Temperature: 69 F (21 C)
Dew Point: 50 F (10 C)
Relative Humidity: 49%
Pressure (altimeter): 29.88 in. Hg (1012 hPa)
ob: LFJL 011700Z AUTO 27011KT 9999 ///CB 21/10 Q1012 TEMPO 4000 -SHRA
cycle: 17

Station Type Date Time Source
LFJL TAF 2021/08/01 12:21 UTC NOAA

TAF LFJL 011100Z 0112/0212 30010KT 9999 BKN040
TEMPO 0112/0203 FEW040TCU BKN050 PROB40
TEMPO 0118/0203 4000 -SHRA
BECMG 0120/0123 18006KT
BECMG 0206/0208 25008KT
BECMG 0208/0210 SCT030TCU PROB40
TEMPO 0210/0212 4000 -SHRA

Example: see airport list